Friday, May 25, 2018, 8:54 AM EDT
Back to Local

KBHB, Bar Harbor, Hancock County-bar Harbor Airport

Location: Ellsworth, ME, United States Lat: 44.45
Local Time: 8:54 AM EDT (12:54 GMT) Lon: -68.367
Time Zone: US/Eastern Elev: 82 ft

Show me the last for .
Show Decoded

2018-05-25 07:56 METAR KBHB 251156Z AUTO 21012KT 10SM CLR 14/10 A2974 RMK AO2 SLP076 T01390100
                 10139 20100 57019 $ =
2018-05-25 06:56 METAR KBHB 251056Z AUTO 22009KT 10SM CLR 12/09 A2977 RMK AO2 SLP084 T01220094 $
                 =
2018-05-25 05:56 METAR KBHB 250956Z AUTO 22012KT 10SM CLR 11/09 A2978 RMK AO2 SLP089 T01060089 $
                 =
2018-05-25 04:56 METAR KBHB 250856Z AUTO 22011KT 10SM SCT110 11/09 A2980 RMK AO2 SLP096 T01060089
                 56038 $ =
2018-05-25 03:56 METAR KBHB 250756Z AUTO 21015G21KT 10SM CLR 10/09 A2982 RMK AO2 SLP103 T01000089
                 $ =
2018-05-25 02:56 METAR KBHB 250656Z AUTO 21012KT 10SM CLR 10/08 A2987 RMK AO2 SLP119 T01000083 $
                 =
2018-05-25 01:56 METAR KBHB 250556Z AUTO 20012KT 10SM FEW110 10/08 A2991 RMK AO2 SLP133 T01000083
                 10100 20089 58036 $ =
2018-05-25 00:56 METAR KBHB 250456Z AUTO 21010KT 10SM FEW080 SCT110 10/08 A2996 RMK AO2 SLP149
                 T01000078 $ =
2018-05-24 23:56 METAR KBHB 250356Z AUTO 21007KT 10SM FEW070 OVC090 10/07 A3000 RMK AO2 SLP163
                 T01000072 $ =
2018-05-24 22:56 METAR KBHB 250256Z AUTO 22008KT 10SM BKN100 OVC120 09/07 A3002 RMK AO2 SLP169
                 T00940072 58007 $ =
2018-05-24 21:56 METAR KBHB 250156Z AUTO 21009KT 10SM CLR 09/07 A3004 RMK AO2 SLP175 T00890067 $
                 =
2018-05-24 20:56 METAR KBHB 250056Z AUTO 21012G18KT 10SM CLR 09/06 A3005 RMK AO2 SLP179 T00890056
                 $ =
2018-05-24 19:56 METAR KBHB 242356Z AUTO 21014G21KT 10SM CLR 09/04 A3004 RMK AO2 SLP177 T00940044
                 10133 20094 401440033 55008 $ =
2018-05-24 18:56 METAR KBHB 242256Z AUTO 20015KT 10SM CLR 10/05 A3004 RMK AO2 SLP175 T01000050 $
                 =
2018-05-24 17:56 METAR KBHB 242156Z AUTO 19014G20KT 10SM CLR 11/04 A3005 RMK AO2 SLP179 T01110039
                 $ =
2018-05-24 16:56 METAR KBHB 242056Z AUTO 19019G24KT 10SM CLR 12/01 A3006 RMK AO2 SLP184 T01170011
                 56012 $ =
2018-05-24 15:56 METAR KBHB 241956Z AUTO 20015G23KT 10SM CLR 12/02 A3008 RMK AO2 SLP189 T01170017
                 $ =
2018-05-24 14:56 METAR KBHB 241856Z AUTO 21016G20KT 10SM CLR 13/02 A3008 RMK AO2 SLP190 T01280017
                 $ =
2018-05-24 13:56 METAR KBHB 241756Z AUTO 21013G20KT 10SM CLR 13/03 A3010 RMK AO2 SLP196 T01280033
                 10144 20094 58009 $ =
2018-05-24 12:56 METAR KBHB 241656Z AUTO 21014KT 10SM CLR 13/03 A3011 RMK AO2 SLP200 T01330033 $
                 =
2018-05-24 11:56 METAR KBHB 241556Z AUTO 19011KT 10SM BKN060 14/03 A3012 RMK AO2 SLP203 T01390028
                 $ =
2018-05-24 10:56 METAR KBHB 241456Z AUTO 17008KT 10SM SCT060 13/01 A3012 RMK AO2 SLP205 T01280011
                 50002 $ =
2018-05-24 09:56 METAR KBHB 241356Z AUTO 13006KT 10SM SCT060 BKN075 12/01 A3013 RMK AO2 SLP206
                 T01170011 $ =
2018-05-24 08:56 METAR KBHB 241256Z AUTO 12005KT 10SM BKN060 11/06 A3012 RMK AO2 SLP204 T01060056
                 $ =

Support USWX by starting your Amazon purchase here.